2026/08/21

Sensor Date Temp./Hum.
h3-hermonville 21-08-2026 - 23:59 16.4°C / 77.5%
h4-hermonville 21-08-2026 - 23:57 17.8°C / 71%
h2-hermonville 21-08-2026 - 23:53 18.2°C / 70.5%
h1-hermonville 21-08-2026 - 23:53 15.3°C / 83.5%
h3-hermonville 21-08-2026 - 23:49 16.4°C / 77.5%
h4-hermonville 21-08-2026 - 23:47 17.6°C / 71%
h2-hermonville 21-08-2026 - 23:43 19°C / 67.5%
h1-hermonville 21-08-2026 - 23:43 15.3°C / 83%
h3-hermonville 21-08-2026 - 23:39 16.2°C / 77.5%
h4-hermonville 21-08-2026 - 23:37 17.8°C / 70%
h2-hermonville 21-08-2026 - 23:33 19.1°C / 67%
h1-hermonville 21-08-2026 - 23:33 15.4°C / 82.5%
h2-hermonville 21-08-2026 - 23:23 18.8°C / 67.5%
h1-hermonville 21-08-2026 - 23:23 15.5°C / 81.5%
h3-hermonville 21-08-2026 - 23:19 16.4°C / 76%
h1-hermonville 21-08-2026 - 23:13 15.6°C / 80.5%
h3-hermonville 21-08-2026 - 23:09 16.5°C / 75%
h4-hermonville 21-08-2026 - 23:07 18°C / 68%
h2-hermonville 21-08-2026 - 23:03 19.5°C / 64.5%
h1-hermonville 21-08-2026 - 23:03 15.6°C / 79.5%
h3-hermonville 21-08-2026 - 22:59 16.8°C / 74%
h4-hermonville 21-08-2026 - 22:57 18.1°C / 67.5%
h2-hermonville 21-08-2026 - 22:53 19.7°C / 64%
h1-hermonville 21-08-2026 - 22:53 15.8°C / 78.5%
h3-hermonville 21-08-2026 - 22:49 16.9°C / 73%
h4-hermonville 21-08-2026 - 22:47 18.3°C / 67%
h2-hermonville 21-08-2026 - 22:43 20.1°C / 62.5%
h1-hermonville 21-08-2026 - 22:43 15.9°C / 77.5%
h3-hermonville 21-08-2026 - 22:39 16.9°C / 73%
h4-hermonville 21-08-2026 - 22:37 18.2°C / 66.5%
h2-hermonville 21-08-2026 - 22:33 20.1°C / 61.5%
h1-hermonville 21-08-2026 - 22:33 16.2°C / 77%
h3-hermonville 21-08-2026 - 22:29 16.9°C / 72%
h2-hermonville 21-08-2026 - 22:23 20°C / 62.5%
h1-hermonville 21-08-2026 - 22:23 16.1°C / 75.5%
h3-hermonville 21-08-2026 - 22:19 17.1°C / 70.5%
h2-hermonville 21-08-2026 - 22:13 20°C / 62%
h1-hermonville 21-08-2026 - 22:13 16.4°C / 74.5%
h3-hermonville 21-08-2026 - 22:09 17.3°C / 69.5%
h4-hermonville 21-08-2026 - 22:07 18.7°C / 63.5%
h2-hermonville 21-08-2026 - 22:03 19.9°C / 61.5%
h1-hermonville 21-08-2026 - 22:03 16.5°C / 73.5%
h3-hermonville 21-08-2026 - 21:59 17.6°C / 68%
h4-hermonville 21-08-2026 - 21:57 19°C / 62.5%
h1-hermonville 21-08-2026 - 21:53 16.6°C / 73%
h3-hermonville 21-08-2026 - 21:49 17.9°C / 67%
h4-hermonville 21-08-2026 - 21:47 19.1°C / 62%
h1-hermonville 21-08-2026 - 21:43 16.6°C / 72%
h3-hermonville 21-08-2026 - 21:39 17.8°C / 67%
h4-hermonville 21-08-2026 - 21:37 19.3°C / 61%
h2-hermonville 21-08-2026 - 21:33 20.4°C / 59%
h1-hermonville 21-08-2026 - 21:33 16.8°C / 71%
h3-hermonville 21-08-2026 - 21:29 18.1°C / 65.5%
h4-hermonville 21-08-2026 - 21:27 19.4°C / 61%
h2-hermonville 21-08-2026 - 21:23 20.7°C / 59%
h1-hermonville 21-08-2026 - 21:23 17°C / 69.5%
h3-hermonville 21-08-2026 - 21:19 18.3°C / 65%
h2-hermonville 21-08-2026 - 21:13 20.8°C / 57.5%
h1-hermonville 21-08-2026 - 21:13 17.2°C / 69%
h3-hermonville 21-08-2026 - 21:09 18.2°C / 64.5%
h4-hermonville 21-08-2026 - 21:07 19.4°C / 60%
h2-hermonville 21-08-2026 - 21:03 21.1°C / 57%
h1-hermonville 21-08-2026 - 21:03 17.3°C / 68%
h4-hermonville 21-08-2026 - 20:57 19.5°C / 59%
h2-hermonville 21-08-2026 - 20:53 21.5°C / 55.5%
h1-hermonville 21-08-2026 - 20:53 17.6°C / 67%
h3-hermonville 21-08-2026 - 20:49 18.6°C / 63%
h4-hermonville 21-08-2026 - 20:47 19.8°C / 58.5%
h1-hermonville 21-08-2026 - 20:43 17.9°C / 66%
h3-hermonville 21-08-2026 - 20:39 18.9°C / 61.5%
h2-hermonville 21-08-2026 - 20:33 22.1°C / 55.5%
h1-hermonville 21-08-2026 - 20:33 18.2°C / 65%
h3-hermonville 21-08-2026 - 20:29 19.3°C / 60.5%
h4-hermonville 21-08-2026 - 20:27 20.2°C / 58%
h2-hermonville 21-08-2026 - 20:23 22.2°C / 53%
h1-hermonville 21-08-2026 - 20:23 18.2°C / 64.5%
h3-hermonville 21-08-2026 - 20:19 19.6°C / 59.5%
h4-hermonville 21-08-2026 - 20:17 20.3°C / 57.5%
h2-hermonville 21-08-2026 - 20:13 23.1°C / 50%
h1-hermonville 21-08-2026 - 20:13 18.4°C / 63.5%
h3-hermonville 21-08-2026 - 20:09 19.8°C / 60%
h4-hermonville 21-08-2026 - 20:07 20.3°C / 57%
h2-hermonville 21-08-2026 - 20:03 24.2°C / 49%
h1-hermonville 21-08-2026 - 20:03 18.5°C / 63%
h3-hermonville 21-08-2026 - 19:59 19.7°C / 59%
h4-hermonville 21-08-2026 - 19:57 20.3°C / 56%
h2-hermonville 21-08-2026 - 19:53 24.3°C / 49.5%
h1-hermonville 21-08-2026 - 19:53 18.6°C / 62%
h3-hermonville 21-08-2026 - 19:49 19.7°C / 58.5%
h4-hermonville 21-08-2026 - 19:47 20.4°C / 56.5%
h2-hermonville 21-08-2026 - 19:43 24.9°C / 49%
h1-hermonville 21-08-2026 - 19:43 18.8°C / 62.5%
h3-hermonville 21-08-2026 - 19:39 19.7°C / 59.5%
h2-hermonville 21-08-2026 - 19:33 25.3°C / 46.5%
h1-hermonville 21-08-2026 - 19:33 19°C / 63%
h3-hermonville 21-08-2026 - 19:29 19.8°C / 60%
h4-hermonville 21-08-2026 - 19:27 20.4°C / 57%
h2-hermonville 21-08-2026 - 19:23 24.1°C / 50.5%
h1-hermonville 21-08-2026 - 19:23 18.7°C / 63%
h3-hermonville 21-08-2026 - 19:19 19.9°C / 58.5%
h2-hermonville 21-08-2026 - 19:13 24.5°C / 47.5%
h1-hermonville 21-08-2026 - 19:13 18.8°C / 62%
h3-hermonville 21-08-2026 - 19:09 20.2°C / 56.5%
h4-hermonville 21-08-2026 - 19:07 20.8°C / 56%
h2-hermonville 21-08-2026 - 19:03 26.3°C / 45%
h1-hermonville 21-08-2026 - 19:03 19.4°C / 61%
h3-hermonville 21-08-2026 - 18:59 20.4°C / 58.5%
h4-hermonville 21-08-2026 - 18:57 20.7°C / 56.5%
h2-hermonville 21-08-2026 - 18:53 25.7°C / 47.5%
h1-hermonville 21-08-2026 - 18:53 19.2°C / 62%
h3-hermonville 21-08-2026 - 18:49 20.4°C / 57.5%
h4-hermonville 21-08-2026 - 18:47 20.8°C / 56%
h2-hermonville 21-08-2026 - 18:43 25.3°C / 47.5%
h1-hermonville 21-08-2026 - 18:43 19.3°C / 61.5%
h3-hermonville 21-08-2026 - 18:39 20.6°C / 57.5%
h4-hermonville 21-08-2026 - 18:37 21°C / 56%
h2-hermonville 21-08-2026 - 18:33 25.2°C / 48%
h1-hermonville 21-08-2026 - 18:33 19.5°C / 61.5%
h3-hermonville 21-08-2026 - 18:29 20.9°C / 58%
h4-hermonville 21-08-2026 - 18:27 21.1°C / 56.5%
h2-hermonville 21-08-2026 - 18:23 26°C / 48%
h1-hermonville 21-08-2026 - 18:23 19.9°C / 61.5%
h3-hermonville 21-08-2026 - 18:19 21°C / 57.5%
h4-hermonville 21-08-2026 - 18:17 21.2°C / 56.5%
h2-hermonville 21-08-2026 - 18:13 25.6°C / 48%
h1-hermonville 21-08-2026 - 18:13 19.7°C / 62%
h3-hermonville 21-08-2026 - 18:09 20.9°C / 57.5%
h4-hermonville 21-08-2026 - 18:07 21.3°C / 55.5%
h2-hermonville 21-08-2026 - 18:03 25.3°C / 49%
h1-hermonville 21-08-2026 - 18:03 19.7°C / 61.5%
h3-hermonville 21-08-2026 - 17:59 21.2°C / 57%
h4-hermonville 21-08-2026 - 17:57 21.4°C / 56%
h2-hermonville 21-08-2026 - 17:53 25.3°C / 48.5%
h1-hermonville 21-08-2026 - 17:53 19.9°C / 60.5%
h3-hermonville 21-08-2026 - 17:49 21.3°C / 57%
h4-hermonville 21-08-2026 - 17:47 21.4°C / 56.5%
h2-hermonville 21-08-2026 - 17:43 25.1°C / 50%
h1-hermonville 21-08-2026 - 17:43 20°C / 62%
h3-hermonville 21-08-2026 - 17:39 21.3°C / 57.5%
h4-hermonville 21-08-2026 - 17:37 21.4°C / 56%
h2-hermonville 21-08-2026 - 17:33 23.9°C / 53.5%
h1-hermonville 21-08-2026 - 17:33 20.1°C / 62.5%
h3-hermonville 21-08-2026 - 17:29 21.4°C / 59%
h4-hermonville 21-08-2026 - 17:27 21.6°C / 57.5%
h2-hermonville 21-08-2026 - 17:23 23.7°C / 54.5%
h1-hermonville 21-08-2026 - 17:23 20.1°C / 62.5%
h3-hermonville 21-08-2026 - 17:19 21.1°C / 59.5%
h4-hermonville 21-08-2026 - 17:17 21.3°C / 57%
h2-hermonville 21-08-2026 - 17:13 23.4°C / 55%
h1-hermonville 21-08-2026 - 17:13 20.5°C / 59.5%
h3-hermonville 21-08-2026 - 17:09 20.9°C / 58.5%
h4-hermonville 21-08-2026 - 17:08 21.3°C / 56%
h2-hermonville 21-08-2026 - 17:03 23°C / 56%
h1-hermonville 21-08-2026 - 17:03 20.4°C / 59.5%
h3-hermonville 21-08-2026 - 16:59 20.6°C / 59.5%
h4-hermonville 21-08-2026 - 16:58 21°C / 57%
h2-hermonville 21-08-2026 - 16:53 21.7°C / 59%
h1-hermonville 21-08-2026 - 16:53 20.3°C / 59%
h3-hermonville 21-08-2026 - 16:49 20.4°C / 59%
h4-hermonville 21-08-2026 - 16:48 21.1°C / 55.5%
h2-hermonville 21-08-2026 - 16:43 21.5°C / 60%
h1-hermonville 21-08-2026 - 16:43 20.5°C / 59%
h3-hermonville 21-08-2026 - 16:39 20.6°C / 58%
h4-hermonville 21-08-2026 - 16:38 21.4°C / 57%
h2-hermonville 21-08-2026 - 16:33 20.9°C / 63.5%
h1-hermonville 21-08-2026 - 16:33 21.1°C / 61%
h3-hermonville 21-08-2026 - 16:29 20.5°C / 60%
h4-hermonville 21-08-2026 - 16:28 21.3°C / 57.5%
h2-hermonville 21-08-2026 - 16:23 21°C / 59.5%
h4-hermonville 21-08-2026 - 16:18 21.3°C / 58.5%
h2-hermonville 21-08-2026 - 16:13 21°C / 61%
h1-hermonville 21-08-2026 - 16:13 21.3°C / 61%
h3-hermonville 21-08-2026 - 16:09 20.4°C / 63.5%
h4-hermonville 21-08-2026 - 16:08 21.4°C / 60%
h2-hermonville 21-08-2026 - 16:03 21.1°C / 61.5%
h1-hermonville 21-08-2026 - 16:03 21.3°C / 62%
h3-hermonville 21-08-2026 - 15:59 20.4°C / 64%
h4-hermonville 21-08-2026 - 15:58 21.3°C / 59.5%
h2-hermonville 21-08-2026 - 15:53 21.1°C / 61.5%
h1-hermonville 21-08-2026 - 15:53 21.3°C / 61%
h3-hermonville 21-08-2026 - 15:49 20.9°C / 60.5%
h4-hermonville 21-08-2026 - 15:48 21.8°C / 56.5%
h2-hermonville 21-08-2026 - 15:43 21.6°C / 58%
h1-hermonville 21-08-2026 - 15:43 21.7°C / 57.5%
h3-hermonville 21-08-2026 - 15:39 21.1°C / 58%
h4-hermonville 21-08-2026 - 15:38 21.8°C / 55%
h2-hermonville 21-08-2026 - 15:33 21.7°C / 57%
h1-hermonville 21-08-2026 - 15:33 21.7°C / 57.5%
h3-hermonville 21-08-2026 - 15:29 21.3°C / 57.5%
h4-hermonville 21-08-2026 - 15:28 22°C / 54%
h2-hermonville 21-08-2026 - 15:23 22°C / 55.5%
h1-hermonville 21-08-2026 - 15:23 21.8°C / 57%
h3-hermonville 21-08-2026 - 15:19 21.5°C / 57%
h4-hermonville 21-08-2026 - 15:18 22.3°C / 54%
h2-hermonville 21-08-2026 - 15:13 21.9°C / 57%
h1-hermonville 21-08-2026 - 15:13 21.7°C / 58%
h3-hermonville 21-08-2026 - 15:09 21.4°C / 57%
h4-hermonville 21-08-2026 - 15:08 22.3°C / 54%
h2-hermonville 21-08-2026 - 15:03 21.9°C / 57%
h1-hermonville 21-08-2026 - 15:03 21.6°C / 57.5%
h3-hermonville 21-08-2026 - 14:59 21.5°C / 56%
h2-hermonville 21-08-2026 - 14:53 21.8°C / 55.5%
h1-hermonville 21-08-2026 - 14:53 21.7°C / 57.5%
h3-hermonville 21-08-2026 - 14:49 21.3°C / 56%
h4-hermonville 21-08-2026 - 14:48 21.9°C / 54%
h2-hermonville 21-08-2026 - 14:43 21.3°C / 57%
h1-hermonville 21-08-2026 - 14:43 21.4°C / 58%
h3-hermonville 21-08-2026 - 14:39 21.1°C / 56.5%
h4-hermonville 21-08-2026 - 14:38 21.8°C / 54.5%
h2-hermonville 21-08-2026 - 14:33 21.2°C / 57.5%
h3-hermonville 21-08-2026 - 14:29 20.9°C / 59%
h4-hermonville 21-08-2026 - 14:28 21.7°C / 56%
h2-hermonville 21-08-2026 - 14:23 21°C / 59.5%
h1-hermonville 21-08-2026 - 14:23 21.1°C / 59.5%
h3-hermonville 21-08-2026 - 14:19 20.5°C / 58%
h4-hermonville 21-08-2026 - 14:18 21.4°C / 56.5%
h2-hermonville 21-08-2026 - 14:13 20.7°C / 61%
h1-hermonville 21-08-2026 - 14:13 20.8°C / 61%
h3-hermonville 21-08-2026 - 14:09 20.2°C / 61.5%
h4-hermonville 21-08-2026 - 14:08 21.4°C / 58%
h2-hermonville 21-08-2026 - 14:03 20.5°C / 63.5%
h1-hermonville 21-08-2026 - 14:03 20.8°C / 62.5%
h3-hermonville 21-08-2026 - 13:59 20.3°C / 62.5%
h4-hermonville 21-08-2026 - 13:58 21.6°C / 59%
h2-hermonville 21-08-2026 - 13:53 20.4°C / 64.5%
h1-hermonville 21-08-2026 - 13:53 20.8°C / 63.5%
h3-hermonville 21-08-2026 - 13:49 20.6°C / 64.5%
h4-hermonville 21-08-2026 - 13:48 21.8°C / 59%
h2-hermonville 21-08-2026 - 13:43 20.3°C / 66.5%
h3-hermonville 21-08-2026 - 13:39 20.4°C / 64%
h4-hermonville 21-08-2026 - 13:38 21.7°C / 58.5%
h2-hermonville 21-08-2026 - 13:33 20.2°C / 65%
h1-hermonville 21-08-2026 - 13:33 20.8°C / 64.5%
h3-hermonville 21-08-2026 - 13:29 20.4°C / 64.5%
h4-hermonville 21-08-2026 - 13:28 21.7°C / 58%
h2-hermonville 21-08-2026 - 13:23 20.3°C / 64%
h1-hermonville 21-08-2026 - 13:23 20.7°C / 64%
h3-hermonville 21-08-2026 - 13:19 20.4°C / 63%
h4-hermonville 21-08-2026 - 13:18 21.9°C / 57%
h2-hermonville 21-08-2026 - 13:13 20.2°C / 64.5%
h1-hermonville 21-08-2026 - 13:13 20.7°C / 63%
h3-hermonville 21-08-2026 - 13:09 20.1°C / 63.5%
h4-hermonville 21-08-2026 - 13:08 22°C / 57%
h2-hermonville 21-08-2026 - 13:03 20.2°C / 64%
h1-hermonville 21-08-2026 - 13:03 20.5°C / 63%
h3-hermonville 21-08-2026 - 12:59 20.7°C / 62%
h4-hermonville 21-08-2026 - 12:58 22.4°C / 56%
h2-hermonville 21-08-2026 - 12:53 20.3°C / 62.5%
h1-hermonville 21-08-2026 - 12:53 20.7°C / 63.5%
h3-hermonville 21-08-2026 - 12:49 20.2°C / 63.5%
h4-hermonville 21-08-2026 - 12:48 22.1°C / 55.5%
h1-hermonville 21-08-2026 - 12:43 20.8°C / 62.5%
h3-hermonville 21-08-2026 - 12:39 20.4°C / 62%
h4-hermonville 21-08-2026 - 12:38 22.5°C / 55%
h2-hermonville 21-08-2026 - 12:33 20.4°C / 67%
h1-hermonville 21-08-2026 - 12:33 20.6°C / 64.5%
h3-hermonville 21-08-2026 - 12:29 20.4°C / 63.5%
h4-hermonville 21-08-2026 - 12:28 22.6°C / 55%
h2-hermonville 21-08-2026 - 12:23 20°C / 65%
h1-hermonville 21-08-2026 - 12:23 20.3°C / 63%
h3-hermonville 21-08-2026 - 12:19 20.1°C / 64%
h4-hermonville 21-08-2026 - 12:18 22.4°C / 54.5%
h2-hermonville 21-08-2026 - 12:13 19.9°C / 64.5%
h1-hermonville 21-08-2026 - 12:13 20°C / 64.5%
h3-hermonville 21-08-2026 - 12:09 20°C / 62.5%
h4-hermonville 21-08-2026 - 12:08 22.9°C / 53.5%
h2-hermonville 21-08-2026 - 12:03 19.9°C / 65%
h1-hermonville 21-08-2026 - 12:03 20.2°C / 64.5%
h3-hermonville 21-08-2026 - 11:59 20.1°C / 63.5%
h4-hermonville 21-08-2026 - 11:58 23.7°C / 52.5%
h2-hermonville 21-08-2026 - 11:53 19.9°C / 67%
h1-hermonville 21-08-2026 - 11:53 20.4°C / 66%
h3-hermonville 21-08-2026 - 11:49 20.2°C / 66%
h4-hermonville 21-08-2026 - 11:48 23.9°C / 53%
h2-hermonville 21-08-2026 - 11:43 20°C / 67%
h1-hermonville 21-08-2026 - 11:43 20.1°C / 66.5%
h3-hermonville 21-08-2026 - 11:39 20.1°C / 66.5%
h4-hermonville 21-08-2026 - 11:38 24.2°C / 51.5%
h2-hermonville 21-08-2026 - 11:33 20.1°C / 69%
h1-hermonville 21-08-2026 - 11:33 20.1°C / 65%
h3-hermonville 21-08-2026 - 11:29 20.2°C / 65%
h4-hermonville 21-08-2026 - 11:28 26°C / 47.5%
h2-hermonville 21-08-2026 - 11:23 19.9°C / 70.5%
h1-hermonville 21-08-2026 - 11:23 20°C / 65.5%
h3-hermonville 21-08-2026 - 11:19 19.9°C / 66.5%
h4-hermonville 21-08-2026 - 11:18 25°C / 49.5%
h2-hermonville 21-08-2026 - 11:13 19.6°C / 72%
h1-hermonville 21-08-2026 - 11:13 19.8°C / 65.5%
h3-hermonville 21-08-2026 - 11:09 19.7°C / 66.5%
h4-hermonville 21-08-2026 - 11:08 24.8°C / 51%
h2-hermonville 21-08-2026 - 11:03 19.1°C / 70%
h3-hermonville 21-08-2026 - 10:59 19.6°C / 68%
h4-hermonville 21-08-2026 - 10:58 24.4°C / 54%
h2-hermonville 21-08-2026 - 10:53 18.9°C / 71%
h1-hermonville 21-08-2026 - 10:53 19.4°C / 70%
h3-hermonville 21-08-2026 - 10:49 19.7°C / 69%
h4-hermonville 21-08-2026 - 10:48 24.9°C / 52%
h2-hermonville 21-08-2026 - 10:43 19°C / 73.5%
h1-hermonville 21-08-2026 - 10:43 19.1°C / 72.5%
h3-hermonville 21-08-2026 - 10:39 19.8°C / 71%
h4-hermonville 21-08-2026 - 10:38 25.7°C / 49.5%
h1-hermonville 21-08-2026 - 10:33 18.9°C / 72%
h3-hermonville 21-08-2026 - 10:29 19.7°C / 71%
h4-hermonville 21-08-2026 - 10:28 28°C / 44.5%
h2-hermonville 21-08-2026 - 10:23 18.9°C / 74.5%
h1-hermonville 21-08-2026 - 10:23 19.1°C / 74%
h3-hermonville 21-08-2026 - 10:19 19.8°C / 71%
h4-hermonville 21-08-2026 - 10:18 30.1°C / 40.5%
h2-hermonville 21-08-2026 - 10:13 18.6°C / 74.5%
h1-hermonville 21-08-2026 - 10:13 18.8°C / 73%
h3-hermonville 21-08-2026 - 10:09 19.4°C / 71.5%
h4-hermonville 21-08-2026 - 10:08 31.1°C / 40%
h2-hermonville 21-08-2026 - 10:03 18.3°C / 74%
h1-hermonville 21-08-2026 - 10:03 18.4°C / 72.5%
h3-hermonville 21-08-2026 - 09:59 19°C / 70.5%
h4-hermonville 21-08-2026 - 09:58 29.3°C / 43%
h2-hermonville 21-08-2026 - 09:53 18.2°C / 75.5%
h1-hermonville 21-08-2026 - 09:53 18.1°C / 74.5%
h3-hermonville 21-08-2026 - 09:49 18.5°C / 71%
h4-hermonville 21-08-2026 - 09:48 28.4°C / 43.5%
h2-hermonville 21-08-2026 - 09:43 18.1°C / 77.5%
h1-hermonville 21-08-2026 - 09:43 17.9°C / 73%
h3-hermonville 21-08-2026 - 09:39 18.3°C / 74.5%
h4-hermonville 21-08-2026 - 09:38 26.6°C / 48.5%
h2-hermonville 21-08-2026 - 09:33 18.1°C / 78.5%
h1-hermonville 21-08-2026 - 09:33 17.7°C / 75%
h3-hermonville 21-08-2026 - 09:29 18.3°C / 73.5%
h4-hermonville 21-08-2026 - 09:28 26.8°C / 48.5%
h2-hermonville 21-08-2026 - 09:23 17.7°C / 79.5%
h1-hermonville 21-08-2026 - 09:23 17.6°C / 74.5%
h3-hermonville 21-08-2026 - 09:19 18.5°C / 75%
h4-hermonville 21-08-2026 - 09:18 26.3°C / 51%
h2-hermonville 21-08-2026 - 09:13 17.4°C / 81%
h1-hermonville 21-08-2026 - 09:13 17.5°C / 78%
h3-hermonville 21-08-2026 - 09:09 18.2°C / 79.5%
h4-hermonville 21-08-2026 - 09:08 24.6°C / 54.5%
h2-hermonville 21-08-2026 - 09:03 17.2°C / 85%
h1-hermonville 21-08-2026 - 09:03 17.7°C / 82%
h3-hermonville 21-08-2026 - 08:59 17.9°C / 81%
h4-hermonville 21-08-2026 - 08:58 24.6°C / 57%
h2-hermonville 21-08-2026 - 08:53 16.9°C / 83.5%
h1-hermonville 21-08-2026 - 08:53 17.1°C / 79.5%
h3-hermonville 21-08-2026 - 08:49 17.6°C / 80.5%
h4-hermonville 21-08-2026 - 08:48 23.8°C / 60.5%
h2-hermonville 21-08-2026 - 08:43 16.5°C / 86.5%
h1-hermonville 21-08-2026 - 08:43 17.1°C / 82%
h3-hermonville 21-08-2026 - 08:39 16.7°C / 83.5%
h4-hermonville 21-08-2026 - 08:38 21.6°C / 64.5%
h2-hermonville 21-08-2026 - 08:33 16.3°C / 86%
h1-hermonville 21-08-2026 - 08:33 16.8°C / 83%
h3-hermonville 21-08-2026 - 08:29 17.5°C / 79.5%
h4-hermonville 21-08-2026 - 08:28 20.4°C / 70%
h2-hermonville 21-08-2026 - 08:23 16.1°C / 86%
h1-hermonville 21-08-2026 - 08:23 17°C / 81.5%
h3-hermonville 21-08-2026 - 08:19 17.4°C / 80.5%
h4-hermonville 21-08-2026 - 08:18 18.3°C / 75%
h2-hermonville 21-08-2026 - 08:13 16°C / 86%
h1-hermonville 21-08-2026 - 08:13 17.2°C / 80.5%
h3-hermonville 21-08-2026 - 08:09 17.6°C / 79%
h4-hermonville 21-08-2026 - 08:08 17.9°C / 76.5%
h2-hermonville 21-08-2026 - 08:03 16.3°C / 86%
h1-hermonville 21-08-2026 - 08:03 17.1°C / 80.5%
h3-hermonville 21-08-2026 - 07:59 17.4°C / 80.5%
h4-hermonville 21-08-2026 - 07:58 17.8°C / 76.5%
h2-hermonville 21-08-2026 - 07:53 15.9°C / 87%
h1-hermonville 21-08-2026 - 07:53 17.2°C / 81%
h3-hermonville 21-08-2026 - 07:49 17.2°C / 81.5%
h2-hermonville 21-08-2026 - 07:43 15.9°C / 87.5%
h1-hermonville 21-08-2026 - 07:43 17.1°C / 81%
h3-hermonville 21-08-2026 - 07:39 16.9°C / 81.5%
h4-hermonville 21-08-2026 - 07:38 17.7°C / 76.5%
h2-hermonville 21-08-2026 - 07:33 16.1°C / 86.5%
h1-hermonville 21-08-2026 - 07:33 17°C / 81.5%
h3-hermonville 21-08-2026 - 07:29 17.5°C / 80.5%
h4-hermonville 21-08-2026 - 07:28 17.7°C / 77%
h2-hermonville 21-08-2026 - 07:23 16.1°C / 86.5%
h1-hermonville 21-08-2026 - 07:23 17°C / 81.5%
h3-hermonville 21-08-2026 - 07:19 17.3°C / 81%
h4-hermonville 21-08-2026 - 07:18 17.8°C / 77%
h2-hermonville 21-08-2026 - 07:13 15.9°C / 88%
h1-hermonville 21-08-2026 - 07:13 17.3°C / 81%
h3-hermonville 21-08-2026 - 07:09 16.7°C / 83.5%
h4-hermonville 21-08-2026 - 07:08 17.9°C / 76.5%
h2-hermonville 21-08-2026 - 07:03 16°C / 87.5%
h1-hermonville 21-08-2026 - 07:03 17.2°C / 81.5%
h3-hermonville 21-08-2026 - 06:59 16.9°C / 83.5%
h4-hermonville 21-08-2026 - 06:58 17.7°C / 77%
h2-hermonville 21-08-2026 - 06:53 16°C / 87.5%
h1-hermonville 21-08-2026 - 06:53 17.2°C / 81%
h3-hermonville 21-08-2026 - 06:49 16.4°C / 84%
h4-hermonville 21-08-2026 - 06:48 17.7°C / 76%
h2-hermonville 21-08-2026 - 06:43 15.9°C / 87.5%
h1-hermonville 21-08-2026 - 06:43 17.2°C / 81%
h3-hermonville 21-08-2026 - 06:39 16.7°C / 83.5%
h4-hermonville 21-08-2026 - 06:38 17.7°C / 76.5%
h2-hermonville 21-08-2026 - 06:33 15.8°C / 88%
h1-hermonville 21-08-2026 - 06:33 17.1°C / 81%
h3-hermonville 21-08-2026 - 06:29 16.3°C / 85%
h4-hermonville 21-08-2026 - 06:28 17.5°C / 76.5%
h2-hermonville 21-08-2026 - 06:23 15.7°C / 87.5%
h1-hermonville 21-08-2026 - 06:23 16.9°C / 81.5%
h3-hermonville 21-08-2026 - 06:19 16.1°C / 85%
h4-hermonville 21-08-2026 - 06:18 17.5°C / 77%
h2-hermonville 21-08-2026 - 06:13 15.7°C / 87.5%
h1-hermonville 21-08-2026 - 06:13 16.9°C / 81.5%
h3-hermonville 21-08-2026 - 06:09 15.8°C / 85.5%
h4-hermonville 21-08-2026 - 06:08 17.3°C / 77.5%
h2-hermonville 21-08-2026 - 06:03 15.6°C / 88%
h1-hermonville 21-08-2026 - 06:03 16.9°C / 81.5%
h3-hermonville 21-08-2026 - 05:59 16.2°C / 84%
h4-hermonville 21-08-2026 - 05:58 17.3°C / 77.5%
h2-hermonville 21-08-2026 - 05:53 15.5°C / 88%
h1-hermonville 21-08-2026 - 05:53 16.6°C / 82.5%
h3-hermonville 21-08-2026 - 05:49 16.2°C / 85.5%
h4-hermonville 21-08-2026 - 05:48 17.2°C / 78%
h2-hermonville 21-08-2026 - 05:43 15.6°C / 87.5%
h1-hermonville 21-08-2026 - 05:43 16.3°C / 83.5%
h3-hermonville 21-08-2026 - 05:39 15.7°C / 88.5%
h4-hermonville 21-08-2026 - 05:38 17.4°C / 78%
h2-hermonville 21-08-2026 - 05:33 15.7°C / 87.5%
h1-hermonville 21-08-2026 - 05:33 16.7°C / 83%
h3-hermonville 21-08-2026 - 05:29 15.3°C / 88%
h4-hermonville 21-08-2026 - 05:28 16.8°C / 80%
h2-hermonville 21-08-2026 - 05:23 15.8°C / 87%
h1-hermonville 21-08-2026 - 05:23 16.3°C / 84%
h3-hermonville 21-08-2026 - 05:19 15.5°C / 87.5%
h4-hermonville 21-08-2026 - 05:18 17°C / 79.5%
h2-hermonville 21-08-2026 - 05:13 15.9°C / 86.5%
h1-hermonville 21-08-2026 - 05:13 16.9°C / 82%
h3-hermonville 21-08-2026 - 05:09 15.5°C / 87%
h4-hermonville 21-08-2026 - 05:08 17.4°C / 77.5%
h2-hermonville 21-08-2026 - 05:03 16°C / 87%
h1-hermonville 21-08-2026 - 05:03 17.1°C / 81.5%
h3-hermonville 21-08-2026 - 04:59 15.8°C / 87%
h4-hermonville 21-08-2026 - 04:58 18°C / 76.5%
h2-hermonville 21-08-2026 - 04:53 16°C / 87%
h1-hermonville 21-08-2026 - 04:53 17.2°C / 81.5%
h3-hermonville 21-08-2026 - 04:49 15.9°C / 86%
h4-hermonville 21-08-2026 - 04:48 18°C / 76%
h2-hermonville 21-08-2026 - 04:43 16.1°C / 86.5%
h1-hermonville 21-08-2026 - 04:43 17.2°C / 81%
h3-hermonville 21-08-2026 - 04:39 16.3°C / 84.5%
h4-hermonville 21-08-2026 - 04:38 18°C / 76%
h2-hermonville 21-08-2026 - 04:33 16.2°C / 86%
h1-hermonville 21-08-2026 - 04:33 17.5°C / 80.5%
h3-hermonville 21-08-2026 - 04:29 17.5°C / 80.5%
h4-hermonville 21-08-2026 - 04:28 18°C / 76%
h2-hermonville 21-08-2026 - 04:23 16.4°C / 86%
h1-hermonville 21-08-2026 - 04:23 17.5°C / 80.5%
h3-hermonville 21-08-2026 - 04:19 17.7°C / 80%
h4-hermonville 21-08-2026 - 04:18 18.1°C / 75.5%
h2-hermonville 21-08-2026 - 04:13 16.3°C / 86%
h1-hermonville 21-08-2026 - 04:13 17.5°C / 80.5%
h3-hermonville 21-08-2026 - 04:09 17.5°C / 80%
h4-hermonville 21-08-2026 - 04:08 18.1°C / 76%
h2-hermonville 21-08-2026 - 04:03 16.5°C / 85.5%
h1-hermonville 21-08-2026 - 04:03 17.5°C / 80%
h3-hermonville 21-08-2026 - 03:59 18.1°C / 77.5%
h4-hermonville 21-08-2026 - 03:58 18°C / 76%
h2-hermonville 21-08-2026 - 03:53 16.6°C / 85.5%
h1-hermonville 21-08-2026 - 03:53 17.6°C / 80%
h3-hermonville 21-08-2026 - 03:49 17.9°C / 79.5%
h4-hermonville 21-08-2026 - 03:48 18.3°C / 75%
h2-hermonville 21-08-2026 - 03:43 16.4°C / 86%
h1-hermonville 21-08-2026 - 03:43 17.6°C / 80.5%
h3-hermonville 21-08-2026 - 03:39 17.8°C / 80%
h4-hermonville 21-08-2026 - 03:38 18.3°C / 75%
h2-hermonville 21-08-2026 - 03:33 16.5°C / 85.5%
h1-hermonville 21-08-2026 - 03:33 17.5°C / 80.5%
h3-hermonville 21-08-2026 - 03:29 17.7°C / 80%
h4-hermonville 21-08-2026 - 03:28 18.2°C / 75.5%
h2-hermonville 21-08-2026 - 03:23 16.8°C / 84%
h1-hermonville 21-08-2026 - 03:23 17.4°C / 81.5%
h3-hermonville 21-08-2026 - 03:19 17.8°C / 80.5%
h4-hermonville 21-08-2026 - 03:18 18.4°C / 75%
h2-hermonville 21-08-2026 - 03:13 16.7°C / 85.5%
h1-hermonville 21-08-2026 - 03:13 17.7°C / 80%
h3-hermonville 21-08-2026 - 03:09 17°C / 84%
h4-hermonville 21-08-2026 - 03:08 18.4°C / 75%
h2-hermonville 21-08-2026 - 03:03 16.4°C / 86%
h1-hermonville 21-08-2026 - 03:03 17.6°C / 80.5%
h3-hermonville 21-08-2026 - 02:59 16.7°C / 84.5%
h4-hermonville 21-08-2026 - 02:58 18.4°C / 75.5%
h2-hermonville 21-08-2026 - 02:53 16.4°C / 86%
h1-hermonville 21-08-2026 - 02:53 17.4°C / 81.5%
h3-hermonville 21-08-2026 - 02:49 16.2°C / 87%
h4-hermonville 21-08-2026 - 02:48 18.2°C / 75.5%
h2-hermonville 21-08-2026 - 02:43 16.5°C / 86%
h1-hermonville 21-08-2026 - 02:43 17.4°C / 81.5%
h3-hermonville 21-08-2026 - 02:39 16°C / 86.5%
h4-hermonville 21-08-2026 - 02:38 18.3°C / 75.5%
h2-hermonville 21-08-2026 - 02:33 16.6°C / 85.5%
h1-hermonville 21-08-2026 - 02:33 17.4°C / 81%
h3-hermonville 21-08-2026 - 02:29 16.2°C / 85.5%
h4-hermonville 21-08-2026 - 02:28 18.4°C / 75.5%
h2-hermonville 21-08-2026 - 02:23 16.7°C / 84.5%
h1-hermonville 21-08-2026 - 02:23 17.6°C / 80.5%
h3-hermonville 21-08-2026 - 02:19 16.6°C / 84%
h4-hermonville 21-08-2026 - 02:18 18.4°C / 75%
h2-hermonville 21-08-2026 - 02:13 16.9°C / 84.5%
h1-hermonville 21-08-2026 - 02:13 17.6°C / 80.5%
h3-hermonville 21-08-2026 - 02:09 16.8°C / 83%
h4-hermonville 21-08-2026 - 02:08 18.5°C / 74%
h2-hermonville 21-08-2026 - 02:03 16.9°C / 84%
h1-hermonville 21-08-2026 - 02:03 17.8°C / 79%
h3-hermonville 21-08-2026 - 01:59 17.4°C / 80.5%
h4-hermonville 21-08-2026 - 01:58 18.7°C / 73.5%
h2-hermonville 21-08-2026 - 01:53 16.9°C / 83%
h1-hermonville 21-08-2026 - 01:53 17.9°C / 79%
h3-hermonville 21-08-2026 - 01:49 17.7°C / 79.5%
h4-hermonville 21-08-2026 - 01:48 18.6°C / 74%
h2-hermonville 21-08-2026 - 01:43 17.2°C / 83.5%
h1-hermonville 21-08-2026 - 01:43 17.7°C / 79.5%
h3-hermonville 21-08-2026 - 01:39 17.1°C / 82%
h4-hermonville 21-08-2026 - 01:38 18.7°C / 74.5%
h2-hermonville 21-08-2026 - 01:33 17°C / 84.5%
h1-hermonville 21-08-2026 - 01:33 17.8°C / 80%
h3-hermonville 21-08-2026 - 01:29 17°C / 82%
h4-hermonville 21-08-2026 - 01:28 18.6°C / 75%
h2-hermonville 21-08-2026 - 01:23 16.9°C / 84%
h1-hermonville 21-08-2026 - 01:23 17.8°C / 80%
h3-hermonville 21-08-2026 - 01:19 17.9°C / 78.5%
h4-hermonville 21-08-2026 - 01:18 18.5°C / 75.5%
h2-hermonville 21-08-2026 - 01:13 17.2°C / 84%
h1-hermonville 21-08-2026 - 01:13 17.7°C / 80.5%
h3-hermonville 21-08-2026 - 01:09 18.3°C / 79%
h4-hermonville 21-08-2026 - 01:08 18.5°C / 75.5%
h2-hermonville 21-08-2026 - 01:03 17°C / 85%
h1-hermonville 21-08-2026 - 01:03 18°C / 79.5%
h3-hermonville 21-08-2026 - 00:59 18.2°C / 79.5%
h4-hermonville 21-08-2026 - 00:58 18.6°C / 75%
h2-hermonville 21-08-2026 - 00:53 17°C / 84%
h1-hermonville 21-08-2026 - 00:53 18°C / 79.5%
h3-hermonville 21-08-2026 - 00:49 18.7°C / 77%
h4-hermonville 21-08-2026 - 00:48 18.6°C / 75%
h2-hermonville 21-08-2026 - 00:43 17°C / 84.5%
h1-hermonville 21-08-2026 - 00:43 18°C / 79.5%
h3-hermonville 21-08-2026 - 00:39 18°C / 78.5%
h4-hermonville 21-08-2026 - 00:38 18.8°C / 74.5%
h2-hermonville 21-08-2026 - 00:33 17.3°C / 83%
h1-hermonville 21-08-2026 - 00:33 17.7°C / 80.5%
h3-hermonville 21-08-2026 - 00:29 19°C / 76%
h4-hermonville 21-08-2026 - 00:28 18.7°C / 75%
h2-hermonville 21-08-2026 - 00:23 17.5°C / 83.5%
h1-hermonville 21-08-2026 - 00:23 18.3°C / 78.5%
h3-hermonville 21-08-2026 - 00:19 18.8°C / 76.5%
h4-hermonville 21-08-2026 - 00:18 18.8°C / 74%
h2-hermonville 21-08-2026 - 00:13 17.1°C / 84%
h1-hermonville 21-08-2026 - 00:13 18.3°C / 78.5%
h3-hermonville 21-08-2026 - 00:09 18.4°C / 77.5%
h4-hermonville 21-08-2026 - 00:08 18.8°C / 74%
h2-hermonville 21-08-2026 - 00:03 17.7°C / 81.5%
h1-hermonville 21-08-2026 - 00:03 18.1°C / 79%